Terminal Aerodrome Forecast
Issued by NWS

Home | Current Version | Previous Version | Text Only | Print | Product List | Glossary On
Versions: 1 2 3 4 5 6 7 8 9 10 11 12 13 14 15
000
FTUS45 KABQ 291120
TAFAEG
TAF
KAEG 291120Z 2912/3012 24008KT P6SM SCT070 BKN090
     FM291400 26012G20KT P6SM FEW050 SCT090
     FM291900 26016G26KT P6SM VCSH BKN060
     FM300300 28011KT P6SM VCSH BKN070=

USA.gov is the U.S. government's official web portal to all federal, state and local government web resources and services.